KLEB

Lebanon Municipal Airport

Lebanon, New Hampshire, USA
METAR KLEB 220953Z AUTO 04004KT 10SM FEW110 11/08 A3016 RMK AO2 SLP208 T01060083
Observed Flight Rules
May-22 @ 09:53 UTC (11 minutes ago) Visual Flight Rules
Wind Visibility Clouds
40° at 4 knots 10 miles
  • Few at 11,000' AGL
Temperatures Readings
Current 11°C / 52°F
Dewpoint 8°C / 46°F
Humidity 82%
Altimeter 30.16" Hg
Pressure 1020.8 hPa
Elevation 171
METAR KLEB 220953Z AUTO 04004KT 10SM FEW110 11/08 A3016 RMK AO2 SLP208 T01060083
Observed Flight Rules
May-22 @ 09:53 UTC
(11 minutes ago)
VFR
Wind Visibility
40° at 4 knots 10 miles
Clouds
  • Few at 11,000' AGL
Temperature Dewpoint
11°C / 52°F 8°C / 46°F
Humidity Altimeter Pressure
82% 30.16" Hg 1020.8 hPa